< < Back
Terminal Aerodrome Forecast


Current Version              Previous Versions:   1  2  3  4  5  6  7  8  9  

Terminal Aerodrome Forecast

147
FTUS42 KGSP 041128
TAFHKY
TAF
KHKY 041128Z 0412/0512 30004KT P6SM SCT070
     FM041800 27008KT P6SM FEW060
     FM042300 26004KT P6SM SCT070
     FM050100 24004KT P6SM BKN070 PROB30 0502/0505 4SM -SHRA OVC040
     FM050500 32004KT P6SM BKN060=



Latest METAR

964
SAUS70 KWBC 041700 RRF
MTRHKY
METAR KHKY 041653Z 00000KT 10SM OVC070 18/04 A2971 RMK AO2 SLP045
T01780039


USA.gov is the U.S. government's official web portal to all federal, state and local government web resources and services.